createdAt,value
2018-09-08T00:00:59.981Z,75.10
2018-09-08T00:02:05.954Z,75.94
2018-09-08T00:03:12.435Z,76.29
2018-09-08T00:04:18.491Z,76.21
2018-09-08T00:05:24.448Z,76.34
2018-09-08T00:06:30.606Z,76.94
2018-09-08T00:07:37.489Z,77.21
2018-09-08T00:08:44.006Z,77.19
2018-09-08T00:09:50.171Z,77.15
2018-09-08T00:10:56.282Z,77.24
2018-09-08T00:12:02.705Z,77.05
2018-09-08T00:13:09.146Z,77.19
2018-09-08T00:14:15.475Z,77.61
2018-09-08T00:15:27.016Z,77.18
2018-09-08T00:16:38.779Z,77.14
2018-09-08T00:17:51.603Z,77.16
2018-09-08T00:19:02.606Z,77.36
2018-09-08T00:20:14.505Z,77.42
2018-09-08T00:21:26.277Z,77.02
2018-09-08T00:22:38.024Z,77.04
2018-09-08T00:23:49.533Z,77.17
2018-09-08T00:25:01.279Z,76.40
2018-09-08T00:26:12.409Z,76.29
2018-09-08T00:27:18.601Z,76.25
2018-09-08T00:28:24.525Z,77.02
2018-09-08T00:29:30.654Z,76.92
2018-09-08T00:30:37.109Z,76.73
2018-09-08T00:31:43.304Z,77.37
2018-09-08T00:32:49.749Z,77.50
2018-09-08T00:33:56.144Z,77.43
2018-09-08T00:35:02.492Z,77.27
2018-09-08T00:36:08.869Z,76.45
2018-09-08T00:37:15.316Z,76.35
2018-09-08T00:38:21.629Z,77.17
2018-09-08T00:39:28.246Z,77.94
2018-09-08T00:40:34.519Z,78.27
2018-09-08T00:41:40.919Z,78.54
2018-09-08T00:42:46.724Z,78.86
2018-09-08T00:43:53.043Z,79.05
2018-09-08T00:44:59.293Z,79.52
2018-09-08T00:46:05.214Z,79.76
2018-09-08T00:47:11.479Z,80.59
2018-09-08T00:48:17.673Z,81.26
2018-09-08T00:49:24.085Z,80.90
2018-09-08T00:50:30.454Z,80.45
2018-09-08T00:51:36.823Z,80.45
2018-09-08T00:52:43.236Z,81.79
2018-09-08T00:53:49.659Z,81.54
2018-09-08T00:54:55.962Z,80.60
2018-09-08T00:56:02.525Z,81.00
2018-09-08T00:57:08.584Z,80.77
2018-09-08T00:58:15.001Z,80.51
2018-09-08T00:59:21.348Z,80.27
2018-09-08T01:00:27.392Z,80.87
2018-09-08T01:01:32.281Z,81.49
2018-09-08T01:02:38.678Z,82.82
2018-09-08T01:03:45.294Z,83.08
2018-09-08T01:04:51.883Z,83.81
2018-09-08T01:05:58.190Z,83.21
2018-09-08T01:07:04.591Z,84.00
2018-09-08T01:08:10.925Z,84.29
2018-09-08T01:09:17.119Z,83.97
2018-09-08T01:10:23.141Z,82.90
2018-09-08T01:11:29.457Z,83.34
2018-09-08T01:12:35.712Z,83.02
2018-09-08T01:13:41.960Z,83.32
2018-09-08T01:14:47.943Z,83.11
2018-09-08T01:15:53.935Z,83.27
2018-09-08T01:16:59.927Z,83.56
2018-09-08T01:18:06.233Z,82.68
2018-09-08T01:19:11.904Z,83.15
2018-09-08T01:20:18.179Z,83.61
2018-09-08T01:21:24.136Z,83.60
2018-09-08T01:22:30.125Z,83.44
2018-09-08T01:23:36.380Z,83.83
2018-09-08T01:24:42.532Z,84.10
2018-09-08T01:25:48.932Z,84.10
2018-09-08T01:26:55.210Z,83.53
2018-09-08T01:28:00.977Z,83.24
2018-09-08T01:29:07.024Z,83.82
2018-09-08T01:30:13.445Z,83.93
2018-09-08T01:31:19.852Z,83.66
2018-09-08T01:32:25.941Z,84.86
2018-09-08T01:33:31.753Z,84.88
2018-09-08T01:34:38.181Z,85.00
2018-09-08T01:35:45.279Z,85.24
2018-09-08T01:36:51.627Z,85.73
2018-09-08T01:37:57.761Z,84.90
2018-09-08T01:39:03.556Z,84.62
2018-09-08T01:40:09.968Z,84.13
2018-09-08T01:41:16.135Z,85.08
2018-09-08T01:42:22.564Z,84.39
2018-09-08T01:43:28.901Z,84.69
2018-09-08T01:44:35.211Z,86.22
2018-09-08T01:45:41.312Z,86.55
2018-09-08T01:46:47.595Z,86.37
2018-09-08T01:47:53.712Z,86.05
2018-09-08T01:49:00.142Z,86.87
2018-09-08T01:50:06.236Z,86.43
2018-09-08T01:51:12.259Z,85.79
2018-09-08T01:52:18.546Z,85.36
2018-09-08T01:53:24.925Z,86.56
2018-09-08T01:54:31.216Z,87.66
2018-09-08T01:55:37.581Z,87.30
2018-09-08T01:56:43.697Z,88.18
2018-09-08T01:57:50.086Z,88.09
2018-09-08T01:58:56.418Z,87.64
2018-09-08T02:00:02.730Z,86.89
2018-09-08T02:01:09.165Z,87.17
2018-09-08T02:02:15.464Z,86.95
2018-09-08T02:03:21.916Z,86.47
2018-09-08T02:04:28.297Z,86.68
2018-09-08T02:05:34.836Z,86.45
2018-09-08T02:06:40.825Z,86.17
2018-09-08T02:07:47.932Z,86.50
2018-09-08T02:08:54.196Z,86.44
2018-09-08T02:10:01.001Z,86.64
2018-09-08T02:11:07.515Z,86.38
2018-09-08T02:12:13.675Z,87.88
2018-09-08T02:13:20.051Z,87.86
2018-09-08T02:14:26.460Z,87.00
2018-09-08T02:15:32.688Z,86.69
2018-09-08T02:16:39.046Z,86.96
2018-09-08T02:17:45.416Z,87.25
2018-09-08T02:18:51.828Z,87.98
2018-09-08T02:19:58.227Z,87.83
2018-09-08T02:21:04.280Z,87.26
2018-09-08T02:22:10.766Z,87.56
2018-09-08T02:23:17.142Z,86.62
2018-09-08T02:24:23.531Z,85.46
2018-09-08T02:25:29.796Z,85.70
2018-09-08T02:26:36.372Z,85.83
2018-09-08T02:27:42.905Z,86.61
2018-09-08T02:28:49.142Z,86.77
2018-09-08T02:29:56.561Z,87.70
2018-09-08T02:31:03.068Z,87.50
2018-09-08T02:32:09.473Z,86.70
2018-09-08T02:33:15.808Z,86.88
2018-09-08T02:34:22.124Z,86.79
2018-09-08T02:35:28.464Z,86.10
2018-09-08T02:36:34.947Z,85.72
2018-09-08T02:37:41.296Z,85.61
2018-09-08T02:38:47.555Z,85.90
2018-09-08T02:39:53.965Z,87.31
2018-09-08T02:41:00.384Z,87.96
2018-09-08T02:42:06.690Z,87.37
2018-09-08T02:43:13.373Z,86.29
2018-09-08T02:44:19.975Z,86.32
2018-09-08T02:45:26.363Z,86.34
2018-09-08T02:46:32.457Z,86.55
2018-09-08T02:47:38.773Z,86.86
2018-09-08T02:48:45.285Z,87.20
2018-09-08T02:49:56.002Z,87.31
2018-09-08T02:51:01.811Z,87.37
2018-09-08T02:52:07.020Z,88.00
2018-09-08T02:53:12.921Z,87.81
2018-09-08T02:54:18.066Z,87.97
2018-09-08T02:55:22.965Z,87.83
2018-09-08T02:56:28.147Z,87.73
2018-09-08T02:57:33.336Z,87.41
2018-09-08T02:58:38.592Z,87.34
2018-09-08T02:59:43.784Z,88.13
2018-09-08T03:00:49.017Z,87.72
2018-09-08T03:01:54.149Z,88.22
2018-09-08T03:02:59.352Z,88.48
2018-09-08T03:04:04.560Z,88.36
2018-09-08T03:05:09.734Z,88.93
2018-09-08T03:06:14.923Z,88.70
2018-09-08T03:07:19.794Z,88.25
2018-09-08T03:08:24.996Z,88.51
2018-09-08T03:09:30.173Z,88.93
2018-09-08T03:10:35.310Z,89.44
2018-09-08T03:11:40.405Z,88.97
2018-09-08T03:12:45.589Z,88.58
2018-09-08T03:13:50.788Z,89.21
2018-09-08T03:14:55.679Z,88.91
2018-09-08T03:16:01.718Z,88.93
2018-09-08T03:17:06.869Z,88.96
2018-09-08T03:18:12.086Z,89.08
2018-09-08T03:19:17.120Z,89.33
2018-09-08T03:20:22.480Z,89.70
2018-09-08T03:21:27.636Z,90.26
2018-09-08T03:22:32.799Z,90.69
2018-09-08T03:23:37.993Z,90.67
2018-09-08T03:24:43.164Z,91.12
2018-09-08T03:25:48.740Z,91.28
2018-09-08T03:26:54.357Z,92.12
2018-09-08T03:27:59.241Z,92.04
2018-09-08T03:29:04.397Z,91.58
2018-09-08T03:30:09.635Z,90.90
2018-09-08T03:31:14.797Z,91.22
2018-09-08T03:32:20.000Z,91.58
2018-09-08T03:33:25.165Z,91.53
2018-09-08T03:34:30.409Z,91.36
2018-09-08T03:35:35.533Z,91.24
2018-09-08T03:36:40.889Z,91.41
2018-09-08T03:37:46.029Z,91.19
2018-09-08T03:38:50.896Z,90.82
2018-09-08T03:39:56.073Z,90.38
2018-09-08T03:41:01.273Z,89.84
2018-09-08T03:42:06.470Z,89.39
2018-09-08T03:43:11.897Z,89.27
2018-09-08T03:44:17.064Z,89.70
2018-09-08T03:45:22.236Z,89.92
2018-09-08T03:46:27.935Z,90.55
2018-09-08T03:47:33.158Z,90.75
2018-09-08T03:48:39.098Z,90.47
2018-09-08T03:49:44.916Z,90.58
2018-09-08T03:50:50.038Z,90.86
2018-09-08T03:51:55.228Z,91.69
2018-09-08T03:53:00.393Z,92.67
2018-09-08T03:54:05.578Z,93.16
2018-09-08T03:55:10.661Z,92.92
2018-09-08T03:56:15.864Z,93.47
2018-09-08T03:57:21.019Z,93.80
2018-09-08T03:58:26.273Z,93.72
2018-09-08T03:59:31.293Z,93.64
2018-09-08T04:00:36.476Z,93.19
2018-09-08T04:01:41.748Z,92.97
2018-09-08T04:02:48.808Z,92.88
2018-09-08T04:03:55.223Z,93.60
2018-09-08T04:05:01.678Z,93.64
2018-09-08T04:06:07.934Z,93.59
2018-09-08T04:07:14.353Z,93.49
2018-09-08T04:08:20.484Z,93.83
2018-09-08T04:09:26.989Z,94.08
2018-09-08T04:10:33.491Z,94.49
2018-09-08T04:11:39.473Z,94.86
2018-09-08T04:12:45.502Z,94.15
2018-09-08T04:13:51.918Z,93.04
2018-09-08T04:14:58.344Z,92.97
2018-09-08T04:16:04.656Z,93.66
2018-09-08T04:17:10.717Z,93.31
2018-09-08T04:18:17.084Z,94.44
2018-09-08T04:19:23.493Z,93.82
2018-09-08T04:20:29.923Z,94.15
2018-09-08T04:21:35.963Z,93.32
2018-09-08T04:22:42.453Z,92.99
2018-09-08T04:23:48.833Z,92.96
2018-09-08T04:24:56.052Z,92.52
2018-09-08T04:26:02.400Z,93.08
2018-09-08T04:27:08.731Z,93.74
2018-09-08T04:28:15.837Z,93.79
2018-09-08T04:29:22.296Z,94.43
2018-09-08T04:30:28.965Z,94.50
2018-09-08T04:31:35.003Z,94.47
2018-09-08T04:32:41.473Z,95.16
2018-09-08T04:33:47.796Z,95.12
2018-09-08T04:34:54.226Z,94.93
2018-09-08T04:36:00.302Z,95.11
2018-09-08T04:37:07.036Z,95.07
2018-09-08T04:38:13.462Z,95.11
2018-09-08T04:39:19.610Z,95.18
2018-09-08T04:40:26.494Z,94.97
2018-09-08T04:41:32.557Z,94.92
2018-09-08T04:42:38.931Z,95.29
2018-09-08T04:43:45.334Z,94.81
2018-09-08T04:44:51.738Z,94.36
2018-09-08T04:45:58.148Z,94.35
2018-09-08T04:47:04.443Z,94.62
2018-09-08T04:48:10.755Z,94.97
2018-09-08T04:49:17.099Z,95.12
2018-09-08T04:50:23.014Z,95.37
2018-09-08T04:51:29.415Z,95.70
2018-09-08T04:52:35.833Z,96.03
2018-09-08T04:53:42.111Z,96.73
2018-09-08T04:54:48.460Z,97.11
2018-09-08T04:55:55.473Z,96.80
2018-09-08T04:57:01.938Z,96.74
2018-09-08T04:58:08.485Z,96.69
2018-09-08T04:59:14.913Z,96.35
2018-09-08T05:00:21.211Z,96.19
2018-09-08T05:01:27.701Z,96.07
2018-09-08T05:02:34.128Z,95.69
2018-09-08T05:03:40.661Z,95.04
2018-09-08T05:04:47.007Z,95.23
2018-09-08T05:05:53.501Z,95.66
2018-09-08T05:07:00.519Z,96.69
2018-09-08T05:08:06.963Z,96.94
2018-09-08T05:09:13.455Z,96.99
2018-09-08T05:10:20.073Z,97.12
2018-09-08T05:11:26.473Z,96.67
2018-09-08T05:12:32.815Z,95.28
2018-09-08T05:13:39.217Z,94.84
2018-09-08T05:14:45.638Z,94.61
2018-09-08T05:15:52.038Z,95.21
2018-09-08T05:16:58.481Z,95.82
2018-09-08T05:18:04.907Z,96.14
2018-09-08T05:19:11.293Z,96.81
2018-09-08T05:20:17.657Z,97.19
2018-09-08T05:21:23.986Z,96.74
2018-09-08T05:22:30.363Z,96.64
2018-09-08T05:23:36.637Z,96.03
2018-09-08T05:24:43.180Z,96.25
2018-09-08T05:25:49.969Z,96.28
2018-09-08T05:26:56.369Z,96.93
2018-09-08T05:28:02.912Z,97.89
2018-09-08T05:29:09.329Z,97.58
2018-09-08T05:30:15.672Z,97.66
2018-09-08T05:31:22.058Z,97.56
2018-09-08T05:32:28.599Z,97.60
2018-09-08T05:33:35.703Z,97.56
2018-09-08T05:34:42.132Z,97.80
2018-09-08T05:35:48.549Z,97.58
2018-09-08T05:36:54.963Z,97.50
2018-09-08T05:38:01.504Z,97.35
2018-09-08T05:39:08.169Z,97.57
2018-09-08T05:40:14.672Z,97.29
2018-09-08T05:41:21.238Z,96.58
2018-09-08T05:42:27.700Z,96.21
2018-09-08T05:43:34.994Z,96.19
2018-09-08T05:44:41.294Z,96.10
2018-09-08T05:45:48.220Z,95.30
2018-09-08T05:46:54.629Z,94.95
2018-09-08T05:48:00.986Z,94.80
2018-09-08T05:49:08.028Z,94.61
2018-09-08T05:50:14.495Z,95.50
2018-09-08T05:51:20.970Z,94.44
2018-09-08T05:52:27.437Z,92.39
2018-09-08T05:53:34.559Z,90.79
2018-09-08T05:54:41.764Z,90.85
2018-09-08T05:55:48.618Z,90.73
2018-09-08T05:56:55.152Z,90.89
2018-09-08T05:58:01.847Z,89.79
2018-09-08T05:59:08.783Z,89.21
2018-09-08T06:00:16.364Z,90.21
2018-09-08T06:01:25.810Z,89.80
2018-09-08T06:02:34.524Z,90.05
2018-09-08T06:03:43.455Z,90.21
2018-09-08T06:04:52.146Z,90.74
2018-09-08T06:06:00.600Z,90.50
2018-09-08T06:07:06.701Z,88.83
2018-09-08T06:08:13.197Z,87.67
2018-09-08T06:09:20.761Z,87.46
2018-09-08T06:10:27.611Z,87.21
2018-09-08T06:11:36.755Z,87.69
2018-09-08T06:12:46.140Z,87.03
2018-09-08T06:13:55.736Z,87.15
2018-09-08T06:15:02.442Z,87.78
2018-09-08T06:16:10.641Z,87.04
2018-09-08T06:17:19.242Z,88.31
2018-09-08T06:18:27.311Z,87.71
2018-09-08T06:19:34.016Z,87.59
2018-09-08T06:20:41.673Z,87.63
2018-09-08T06:21:48.240Z,87.16
2018-09-08T06:22:55.530Z,87.63
2018-09-08T06:24:02.391Z,87.23
2018-09-08T06:25:09.330Z,86.49
2018-09-08T06:26:15.878Z,87.15
2018-09-08T06:27:25.081Z,88.50
2018-09-08T06:28:34.071Z,88.76
2018-09-08T06:29:41.658Z,89.27
2018-09-08T06:30:49.075Z,88.86
2018-09-08T06:31:55.730Z,88.83
2018-09-08T06:33:02.615Z,88.66
2018-09-08T06:34:13.884Z,87.61
2018-09-08T06:35:21.757Z,87.56
2018-09-08T06:36:29.088Z,85.14
2018-09-08T06:37:37.695Z,84.66
2018-09-08T06:38:45.068Z,84.52
2018-09-08T06:39:51.916Z,84.08
2018-09-08T06:41:02.356Z,83.58
2018-09-08T06:42:08.919Z,84.55
2018-09-08T06:43:16.441Z,83.71
2018-09-08T06:44:23.930Z,83.75
2018-09-08T06:45:33.121Z,84.23
2018-09-08T06:46:43.914Z,82.66
2018-09-08T06:47:53.450Z,81.99
2018-09-08T06:49:00.790Z,81.88
2018-09-08T06:50:09.998Z,81.82
2018-09-08T06:51:17.950Z,81.72
2018-09-08T06:52:26.657Z,81.25
2018-09-08T06:53:36.395Z,81.40
2018-09-08T06:54:46.767Z,82.88
2018-09-08T06:55:53.916Z,79.71
2018-09-08T06:57:03.140Z,78.71
2018-09-08T06:58:11.449Z,78.48
2018-09-08T06:59:18.044Z,78.99
2018-09-08T07:00:25.509Z,79.35
2018-09-08T07:01:33.867Z,78.78
2018-09-08T07:02:42.027Z,77.90
2018-09-08T07:03:50.123Z,78.60
2018-09-08T07:04:59.831Z,78.65
2018-09-08T07:06:06.948Z,77.00
2018-09-08T07:07:15.482Z,77.34
2018-09-08T07:08:23.185Z,77.00
2018-09-08T07:09:31.143Z,74.60
2018-09-08T07:10:41.434Z,76.70
2018-09-08T07:11:48.721Z,74.74
2018-09-08T07:12:55.636Z,72.40
2018-09-08T07:14:02.919Z,72.02
2018-09-08T07:15:10.721Z,71.92
2018-09-08T07:16:17.461Z,71.53
2018-09-08T07:17:23.957Z,71.67
2018-09-08T07:18:30.742Z,72.14
2018-09-08T07:19:37.866Z,72.50
2018-09-08T07:20:44.635Z,72.36
2018-09-08T07:21:51.097Z,70.49
2018-09-08T07:22:57.421Z,71.17
2018-09-08T07:24:03.843Z,71.28
2018-09-08T07:25:10.224Z,71.13
2018-09-08T07:26:16.600Z,70.95
2018-09-08T07:27:23.163Z,68.39
2018-09-08T07:28:29.364Z,66.19
2018-09-08T07:29:35.783Z,66.66
2018-09-08T07:30:42.201Z,66.93
2018-09-08T07:31:48.593Z,66.00
2018-09-08T07:32:55.049Z,65.95
2018-09-08T07:34:01.472Z,65.26
2018-09-08T07:35:07.720Z,63.85
2018-09-08T07:36:14.181Z,64.54
2018-09-08T07:37:20.455Z,64.37
2018-09-08T07:38:27.084Z,64.10
2018-09-08T07:39:33.400Z,63.85
2018-09-08T07:40:39.689Z,63.59
2018-09-08T07:41:46.031Z,63.66
2018-09-08T07:42:52.316Z,64.76
2018-09-08T07:43:58.697Z,63.69
2018-09-08T07:45:04.357Z,63.10
2018-09-08T07:46:10.759Z,62.69
2018-09-08T07:47:17.173Z,63.58
2018-09-08T07:48:23.481Z,62.02
2018-09-08T07:49:29.823Z,62.08
2018-09-08T07:50:36.153Z,61.23
2018-09-08T07:51:42.388Z,60.08
2018-09-08T07:52:48.749Z,59.65
2018-09-08T07:53:55.189Z,58.62
2018-09-08T07:55:01.560Z,59.75
2018-09-08T07:56:07.863Z,59.27
2018-09-08T07:57:14.142Z,58.69
2018-09-08T07:58:20.574Z,56.93
2018-09-08T07:59:26.951Z,57.06
2018-09-08T08:00:33.421Z,55.46
2018-09-08T08:01:39.668Z,55.85
2018-09-08T08:02:46.006Z,56.44
2018-09-08T08:03:52.273Z,56.25
2018-09-08T08:04:58.696Z,55.53
2018-09-08T08:06:04.954Z,54.57
2018-09-08T08:07:16.373Z,55.20
2018-09-08T08:08:23.262Z,54.56
2018-09-08T08:09:29.688Z,53.84
2018-09-08T08:10:35.974Z,53.65
2018-09-08T08:11:42.220Z,52.03
2018-09-08T08:12:48.127Z,52.27
2018-09-08T08:13:54.746Z,53.22
2018-09-08T08:15:00.941Z,52.50
2018-09-08T08:16:07.217Z,52.14
2018-09-08T08:17:13.528Z,52.87
2018-09-08T08:18:20.173Z,51.13
2018-09-08T08:19:26.447Z,51.27
2018-09-08T08:20:32.911Z,51.21
2018-09-08T08:21:39.301Z,51.47
2018-09-08T08:22:45.728Z,51.78
2018-09-08T08:23:52.113Z,52.04
2018-09-08T08:24:58.453Z,51.68
2018-09-08T08:26:04.714Z,51.74
2018-09-08T08:27:11.135Z,51.68
2018-09-08T08:28:17.298Z,52.02
2018-09-08T08:29:23.709Z,51.57
2018-09-08T08:30:29.958Z,51.09
2018-09-08T08:31:36.408Z,51.56
2018-09-08T08:32:42.809Z,50.22
2018-09-08T08:33:49.072Z,49.63
2018-09-08T08:34:55.311Z,48.47
2018-09-08T08:36:01.757Z,48.78
2018-09-08T08:37:07.534Z,48.90
2018-09-08T08:38:13.822Z,49.15
2018-09-08T08:39:20.024Z,48.98
2018-09-08T08:40:26.471Z,49.30
2018-09-08T08:41:32.986Z,48.08
2018-09-08T08:42:40.945Z,48.26
2018-09-08T08:43:47.165Z,48.50
2018-09-08T08:44:53.083Z,48.12
2018-09-08T08:45:59.191Z,48.08
2018-09-08T08:47:06.136Z,48.48
2018-09-08T08:48:11.991Z,48.04
2018-09-08T08:49:17.975Z,49.01
2018-09-08T08:50:35.598Z,49.66
2018-09-08T08:51:52.861Z,49.62
2018-09-08T08:53:10.566Z,50.12
2018-09-08T08:54:16.235Z,49.19
2018-09-08T08:55:22.658Z,49.50
2018-09-08T08:56:28.925Z,49.27
2018-09-08T08:57:35.403Z,49.44
2018-09-08T08:58:41.663Z,49.34
2018-09-08T08:59:48.116Z,50.39
2018-09-08T09:00:54.423Z,49.22
2018-09-08T09:02:00.689Z,50.69
2018-09-08T09:03:07.003Z,49.91
2018-09-08T09:04:13.274Z,50.31
2018-09-08T09:05:19.603Z,51.51
2018-09-08T09:06:25.865Z,49.25
2018-09-08T09:07:32.280Z,49.88
2018-09-08T09:08:39.142Z,50.02
2018-09-08T09:09:45.153Z,49.68
2018-09-08T09:10:51.453Z,49.29
2018-09-08T09:11:57.698Z,49.87
2018-09-08T09:13:04.116Z,50.25
2018-09-08T09:14:10.133Z,50.51
2018-09-08T09:15:16.730Z,51.71
2018-09-08T09:16:23.168Z,50.79
2018-09-08T09:17:29.377Z,51.56
2018-09-08T09:18:35.506Z,51.09
2018-09-08T09:19:53.165Z,49.14
2018-09-08T09:23:01.807Z,49.96
2018-09-08T09:24:45.472Z,50.46
2018-09-08T09:25:51.838Z,49.07
2018-09-08T09:26:58.160Z,50.58
2018-09-08T09:28:04.553Z,49.60
2018-09-08T09:29:10.884Z,47.67
2018-09-08T09:30:16.824Z,46.93
2018-09-08T09:31:23.119Z,46.70
2018-09-08T09:32:29.405Z,47.58
2018-09-08T09:33:35.830Z,47.25
2018-09-08T09:34:41.880Z,48.87
2018-09-08T09:35:48.359Z,49.27
2018-09-08T09:36:54.659Z,49.42
2018-09-08T09:38:00.893Z,48.21
2018-09-08T09:39:11.916Z,48.35
2018-09-08T09:40:18.249Z,48.47
2018-09-08T09:41:24.556Z,47.39
2018-09-08T09:42:30.767Z,48.11
2018-09-08T09:43:37.030Z,47.23
2018-09-08T09:44:43.260Z,47.59
2018-09-08T09:45:49.629Z,47.54
2018-09-08T09:46:55.764Z,48.28
2018-09-08T09:48:02.150Z,48.61
2018-09-08T09:49:08.324Z,47.66
2018-09-08T09:50:14.589Z,45.99
2018-09-08T09:51:20.897Z,46.40
2018-09-08T09:52:27.133Z,47.44
2018-09-08T09:53:33.744Z,46.90
2018-09-08T09:54:40.134Z,46.62
2018-09-08T09:55:46.388Z,46.30
2018-09-08T09:56:52.679Z,46.04
2018-09-08T09:57:58.954Z,46.59
2018-09-08T09:59:04.890Z,47.46
2018-09-08T10:00:10.681Z,46.52
2018-09-08T10:01:16.554Z,47.40
2018-09-08T10:02:22.780Z,48.95
2018-09-08T10:03:29.196Z,46.47
2018-09-08T10:04:35.463Z,46.27
2018-09-08T10:05:41.736Z,46.81
2018-09-08T10:06:48.022Z,45.50
2018-09-08T10:07:54.464Z,46.67
2018-09-08T10:09:00.553Z,45.61
2018-09-08T10:10:06.406Z,45.18
2018-09-08T10:11:12.748Z,45.07
2018-09-08T10:12:18.951Z,43.89
2018-09-08T10:13:25.307Z,44.54
2018-09-08T10:14:31.632Z,44.59
2018-09-08T10:15:38.051Z,44.76
2018-09-08T10:16:44.296Z,45.21
2018-09-08T10:17:50.581Z,45.46
2018-09-08T10:18:56.854Z,45.32
2018-09-08T10:20:02.767Z,45.66
2018-09-08T10:21:09.181Z,45.22
2018-09-08T10:22:15.696Z,45.91
2018-09-08T10:23:22.043Z,46.25
2018-09-08T10:24:28.860Z,47.78
2018-09-08T10:25:35.775Z,46.72
2018-09-08T10:26:41.685Z,45.56
2018-09-08T10:27:47.715Z,45.64
2018-09-08T10:28:54.159Z,46.14
2018-09-08T10:30:00.947Z,44.91
2018-09-08T10:31:07.131Z,44.82
2018-09-08T10:32:13.958Z,45.17
2018-09-08T10:33:20.081Z,45.39
2018-09-08T10:34:26.465Z,44.92
2018-09-08T10:35:34.758Z,44.55
2018-09-08T10:36:41.720Z,45.44
2018-09-08T10:37:49.115Z,45.31
2018-09-08T10:38:55.628Z,45.22
2018-09-08T10:40:01.935Z,44.24
2018-09-08T10:41:08.446Z,43.83
2018-09-08T10:42:14.468Z,43.49
2018-09-08T10:43:20.855Z,43.03
2018-09-08T10:44:27.104Z,42.70
2018-09-08T10:45:33.375Z,43.26
2018-09-08T10:46:39.666Z,42.91
2018-09-08T10:47:45.955Z,44.47
2018-09-08T10:48:52.381Z,45.09
2018-09-08T10:49:58.415Z,45.68
2018-09-08T10:51:04.137Z,44.31
2018-09-08T10:52:09.885Z,44.66
2018-09-08T10:53:16.999Z,43.79
2018-09-08T10:54:23.470Z,43.88
2018-09-08T10:55:30.957Z,43.93
2018-09-08T10:56:38.759Z,43.15
2018-09-08T10:57:48.524Z,43.58
2018-09-08T10:58:56.881Z,43.09
2018-09-08T11:00:07.438Z,42.62
2018-09-08T11:01:17.613Z,42.30
2018-09-08T11:02:26.404Z,43.01
2018-09-08T11:03:35.509Z,42.99
2018-09-08T11:04:45.417Z,42.17
2018-09-08T11:05:53.725Z,41.84
2018-09-08T11:07:03.568Z,41.90
2018-09-08T11:08:15.014Z,40.59
2018-09-08T11:09:24.272Z,41.38
2018-09-08T11:10:32.943Z,41.49
2018-09-08T11:11:40.592Z,41.71
2018-09-08T11:12:48.750Z,40.87
2018-09-08T11:13:57.032Z,41.20
2018-09-08T11:15:04.726Z,41.05
2018-09-08T11:16:14.059Z,40.54
2018-09-08T11:17:21.551Z,40.89
2018-09-08T11:18:28.337Z,42.18
2018-09-08T11:19:34.987Z,42.02
2018-09-08T11:20:41.163Z,40.49
2018-09-08T11:21:48.108Z,41.16
2018-09-08T11:22:54.852Z,41.02
2018-09-08T11:24:01.142Z,41.01
2018-09-08T11:25:08.283Z,39.20
2018-09-08T11:26:15.493Z,39.36
2018-09-08T11:27:22.386Z,39.01
2018-09-08T11:28:29.836Z,39.06
2018-09-08T11:29:36.455Z,40.25
2018-09-08T11:30:43.341Z,41.46
2018-09-08T11:31:49.657Z,41.12
2018-09-08T11:32:58.253Z,42.11
2018-09-08T11:34:08.860Z,40.15
2018-09-08T11:35:16.159Z,40.22
2018-09-08T11:36:23.831Z,38.05
2018-09-08T11:37:30.854Z,39.21
2018-09-08T11:38:39.124Z,37.20
2018-09-08T11:39:45.877Z,38.39
2018-09-08T11:40:52.659Z,37.50
2018-09-08T11:41:59.425Z,38.33
2018-09-08T11:43:07.320Z,38.65
2018-09-08T11:44:13.936Z,38.16
2018-09-08T11:45:20.785Z,37.56
2018-09-08T11:46:27.338Z,37.92
2018-09-08T11:47:34.139Z,38.01
2018-09-08T11:48:40.758Z,38.03
2018-09-08T11:49:47.300Z,38.37
2018-09-08T11:50:54.221Z,38.64
2018-09-08T11:52:00.816Z,37.48
2018-09-08T11:53:07.420Z,38.26
2018-09-08T11:54:15.582Z,38.32
2018-09-08T11:55:24.285Z,37.16
2018-09-08T11:56:31.973Z,36.91
2018-09-08T11:57:38.611Z,37.71
2018-09-08T11:58:47.413Z,39.55
2018-09-08T11:59:54.295Z,37.02
2018-09-08T12:01:01.439Z,37.61
2018-09-08T12:02:08.171Z,38.82
2018-09-08T12:03:15.276Z,37.77
2018-09-08T12:04:22.121Z,38.05
2018-09-08T12:05:28.868Z,36.64
2018-09-08T12:06:36.984Z,37.66
2018-09-08T12:07:43.722Z,36.68
2018-09-08T12:08:51.398Z,35.67
2018-09-08T12:09:57.961Z,36.41
2018-09-08T12:11:04.486Z,37.43
2018-09-08T12:12:10.924Z,37.24
2018-09-08T12:13:17.371Z,38.47
2018-09-08T12:14:24.357Z,39.09
2018-09-08T12:15:33.706Z,39.60
2018-09-08T12:16:40.927Z,37.46
2018-09-08T12:17:48.590Z,37.94
2018-09-08T12:18:56.706Z,37.87
2018-09-08T12:20:05.935Z,37.37
2018-09-08T12:21:14.260Z,37.68
2018-09-08T12:22:22.798Z,37.79
2018-09-08T12:23:30.497Z,38.16
2018-09-08T12:24:37.527Z,37.05
2018-09-08T12:25:44.791Z,37.05
2018-09-08T12:26:51.400Z,36.01
2018-09-08T12:27:58.563Z,36.17
2018-09-08T12:29:05.332Z,35.99
2018-09-08T12:30:13.294Z,36.38
2018-09-08T12:31:21.680Z,36.04
2018-09-08T12:32:28.407Z,36.71
2018-09-08T12:33:35.470Z,38.00
2018-09-08T12:34:42.956Z,35.59
2018-09-08T12:35:49.867Z,34.78
2018-09-08T12:36:56.677Z,34.82
2018-09-08T12:38:04.841Z,37.51
2018-09-08T12:39:11.627Z,35.41
2018-09-08T12:40:17.915Z,35.15
2018-09-08T12:41:24.639Z,35.90
2018-09-08T12:42:31.855Z,37.57
2018-09-08T12:43:40.263Z,36.62
2018-09-08T12:44:47.959Z,36.97
2018-09-08T12:45:56.654Z,36.72
2018-09-08T12:47:04.191Z,36.11
2018-09-08T12:48:11.367Z,36.96
2018-09-08T12:49:18.186Z,37.65
2018-09-08T12:50:24.916Z,36.07
2018-09-08T12:51:33.389Z,35.82
2018-09-08T12:52:39.849Z,36.38
2018-09-08T12:53:48.661Z,36.32
2018-09-08T12:54:56.478Z,36.42
2018-09-08T12:56:03.801Z,36.35
2018-09-08T12:57:10.745Z,35.15
2018-09-08T12:58:18.225Z,35.00
2018-09-08T12:59:25.019Z,36.11
2018-09-08T13:00:31.757Z,36.01
2018-09-08T13:01:38.241Z,36.21
2018-09-08T13:02:46.503Z,36.75
2018-09-08T13:03:53.724Z,37.58
2018-09-08T13:05:00.140Z,36.30
2018-09-08T13:06:07.167Z,36.41
2018-09-08T13:07:14.631Z,35.94
2018-09-08T13:08:21.660Z,35.57
2018-09-08T13:09:28.929Z,35.63
2018-09-08T13:10:35.951Z,34.92
2018-09-08T13:11:42.537Z,34.85
2018-09-08T13:12:49.164Z,35.22
2018-09-08T13:13:57.651Z,34.95
2018-09-08T13:15:03.771Z,35.50
2018-09-08T13:16:10.304Z,34.89
2018-09-08T13:17:17.888Z,35.07
2018-09-08T13:18:24.298Z,36.18
2018-09-08T13:19:34.214Z,36.51
2018-09-08T13:20:42.011Z,36.55
2018-09-08T13:21:49.892Z,36.61
2018-09-08T13:22:57.374Z,37.65
2018-09-08T13:24:05.092Z,36.45
2018-09-08T13:25:12.122Z,35.89
2018-09-08T13:26:19.913Z,34.84
2018-09-08T13:27:28.105Z,34.42
2018-09-08T13:28:35.644Z,34.01
2018-09-08T13:29:43.123Z,33.39
2018-09-08T13:30:50.841Z,34.22
2018-09-08T13:31:57.324Z,33.32
2018-09-08T13:33:03.669Z,35.77
2018-09-08T13:34:10.949Z,35.59
2018-09-08T13:35:17.836Z,34.12
2018-09-08T13:36:23.823Z,33.89
2018-09-08T13:37:29.975Z,33.75
2018-09-08T13:38:36.445Z,36.02
2018-09-08T13:39:44.004Z,34.11
2018-09-08T13:40:55.588Z,34.34
2018-09-08T13:42:09.529Z,32.64
2018-09-08T13:43:30.966Z,33.83
2018-09-08T13:44:47.498Z,33.97
2018-09-08T13:46:02.562Z,32.43
2018-09-08T13:47:16.783Z,32.38
2018-09-08T13:48:37.963Z,32.72
2018-09-08T13:49:59.271Z,33.83
2018-09-08T13:51:14.703Z,33.46
2018-09-08T13:52:38.253Z,32.53
2018-09-08T13:53:57.271Z,32.77
2018-09-08T13:55:12.937Z,33.98
2018-09-08T13:56:23.827Z,32.07
2018-09-08T13:57:39.309Z,32.31
2018-09-08T13:58:55.555Z,32.39
2018-09-08T14:00:10.655Z,32.49
2018-09-08T14:01:28.164Z,33.30
2018-09-08T14:02:45.544Z,32.78
2018-09-08T14:04:04.095Z,33.67
2018-09-08T14:05:23.320Z,32.21
2018-09-08T14:06:47.469Z,31.53
2018-09-08T14:08:01.238Z,32.75
2018-09-08T14:09:13.130Z,32.45
2018-09-08T14:10:30.498Z,33.63
2018-09-08T14:11:48.677Z,32.49
2018-09-08T14:13:07.036Z,32.53
2018-09-08T14:14:25.534Z,31.87
2018-09-08T14:15:48.435Z,30.88
2018-09-08T14:17:07.703Z,32.27
2018-09-08T14:18:25.472Z,33.37
2018-09-08T14:19:42.472Z,30.93
2018-09-08T14:20:56.911Z,32.30
2018-09-08T14:22:12.803Z,29.84
2018-09-08T14:23:29.799Z,29.69
2018-09-08T14:24:47.319Z,30.10
2018-09-08T14:26:13.119Z,30.01
2018-09-08T14:27:29.255Z,29.72
2018-09-08T14:28:49.321Z,30.20
2018-09-08T14:30:03.084Z,29.70